createdAt,value
2022-09-07T00:01:23.137Z,6.30
2022-09-07T00:03:56.506Z,5.30
2022-09-07T00:06:25.375Z,5.30
2022-09-07T00:08:54.187Z,6.40
2022-09-07T00:11:23.012Z,5.10
2022-09-07T00:13:51.767Z,5.20
2022-09-07T00:16:25.015Z,5.30
2022-09-07T00:18:57.301Z,6.40
2022-09-07T00:21:27.091Z,6.00
2022-09-07T00:23:56.608Z,5.60
2022-09-07T00:26:29.166Z,6.50
2022-09-07T00:29:00.667Z,4.00
2022-09-07T00:31:31.511Z,6.20
2022-09-07T00:34:03.106Z,7.80
2022-09-07T00:36:31.768Z,4.10
2022-09-07T00:39:00.366Z,4.40
2022-09-07T00:41:29.381Z,4.90
2022-09-07T00:44:37.662Z,7.40
2022-09-07T00:47:19.723Z,3.50
2022-09-07T00:49:57.426Z,6.60
2022-09-07T00:52:29.617Z,4.40
2022-09-07T00:55:04.042Z,7.00
2022-09-07T00:57:34.337Z,5.80
2022-09-07T01:00:05.362Z,9.30
2022-09-07T01:02:34.235Z,7.90
2022-09-07T01:05:16.429Z,6.00
2022-09-07T01:07:46.290Z,5.20
2022-09-07T01:10:15.637Z,5.80
2022-09-07T01:12:44.351Z,7.60
2022-09-07T01:15:13.349Z,5.80
2022-09-07T01:17:47.911Z,7.10
2022-09-07T01:20:36.904Z,8.60
2022-09-07T01:24:22.998Z,5.70
2022-09-07T01:27:09.001Z,5.60
2022-09-07T01:30:09.515Z,4.80
2022-09-07T01:33:09.664Z,4.30
2022-09-07T01:35:48.434Z,4.90
2022-09-07T01:38:35.800Z,4.70
2022-09-07T01:41:45.199Z,5.20
2022-09-07T01:44:32.857Z,5.80
2022-09-07T01:47:42.611Z,6.90
2022-09-07T01:50:28.809Z,6.10
2022-09-07T01:53:15.738Z,4.90
2022-09-07T01:55:57.352Z,5.00
2022-09-07T01:58:25.932Z,4.70
2022-09-07T02:01:11.502Z,4.50
2022-09-07T02:03:53.316Z,7.40
2022-09-07T02:06:47.477Z,5.00
2022-09-07T02:09:37.502Z,5.00
2022-09-07T02:12:22.168Z,6.10
2022-09-07T02:14:59.973Z,5.60
2022-09-07T02:17:39.940Z,5.00
2022-09-07T02:20:32.338Z,7.30
2022-09-07T02:23:07.023Z,9.00
2022-09-07T02:25:46.301Z,7.80
2022-09-07T02:28:21.563Z,8.80
2022-09-07T02:30:50.476Z,7.50
2022-09-07T02:33:19.462Z,7.30
2022-09-07T02:35:48.708Z,6.00
2022-09-07T02:38:18.020Z,5.70
2022-09-07T02:41:00.149Z,5.20
2022-09-07T02:43:31.697Z,7.90
2022-09-07T02:46:33.623Z,5.50
2022-09-07T02:49:24.053Z,7.40
2022-09-07T02:52:20.017Z,6.30
2022-09-07T02:55:21.382Z,5.00
2022-09-07T02:59:00.991Z,4.90
2022-09-07T03:02:00.548Z,5.70
2022-09-07T03:04:48.501Z,5.10
2022-09-07T03:07:36.245Z,6.30
2022-09-07T03:10:09.766Z,6.30
2022-09-07T03:12:48.624Z,7.40
2022-09-07T03:15:22.359Z,6.10
2022-09-07T03:17:52.044Z,7.30
2022-09-07T03:20:24.302Z,5.60
2022-09-07T03:22:53.173Z,8.00
2022-09-07T03:25:23.247Z,6.10
2022-09-07T03:27:51.967Z,14.70
2022-09-07T03:30:21.089Z,11.10
2022-09-07T03:32:49.869Z,8.00
2022-09-07T03:35:19.050Z,6.20
2022-09-07T03:37:47.782Z,7.00
2022-09-07T03:40:17.185Z,8.90
2022-09-07T03:42:52.647Z,8.60
2022-09-07T03:45:21.344Z,7.10
2022-09-07T03:47:51.516Z,20.50
2022-09-07T03:50:20.221Z,13.30
2022-09-07T03:52:49.006Z,7.80
2022-09-07T03:55:17.860Z,7.30
2022-09-07T03:57:46.531Z,5.70
2022-09-07T04:00:15.375Z,6.60
2022-09-07T04:02:44.263Z,7.60
2022-09-07T04:05:13.312Z,8.20
2022-09-07T04:07:41.960Z,8.40
2022-09-07T04:10:11.006Z,16.60
2022-09-07T04:12:40.073Z,16.70
2022-09-07T04:15:09.509Z,10.20
2022-09-07T04:17:38.807Z,18.30
2022-09-07T04:20:08.982Z,10.60
2022-09-07T04:22:37.599Z,10.20
2022-09-07T04:25:06.509Z,9.20
2022-09-07T04:27:35.172Z,8.60
2022-09-07T04:30:04.084Z,7.20
2022-09-07T04:32:32.867Z,10.30
2022-09-07T04:35:01.569Z,10.40
2022-09-07T04:37:30.576Z,6.10
2022-09-07T04:39:59.350Z,7.50
2022-09-07T04:42:28.147Z,11.40
2022-09-07T04:44:57.353Z,6.80
2022-09-07T04:47:26.246Z,9.30
2022-09-07T04:49:55.000Z,6.60
2022-09-07T04:52:25.974Z,9.70
2022-09-07T04:54:54.658Z,9.60
2022-09-07T04:57:26.125Z,11.40
2022-09-07T04:59:55.307Z,8.70
2022-09-07T05:02:24.135Z,10.90
2022-09-07T05:04:53.083Z,7.00
2022-09-07T05:07:21.735Z,7.60
2022-09-07T05:09:50.483Z,7.30
2022-09-07T05:12:19.278Z,4.70
2022-09-07T05:14:47.911Z,5.40
2022-09-07T05:17:16.700Z,4.80
2022-09-07T05:19:45.593Z,7.10
2022-09-07T05:22:14.456Z,5.90
2022-09-07T05:24:43.086Z,9.80
2022-09-07T05:27:11.918Z,6.40
2022-09-07T05:32:29.508Z,8.80
2022-09-07T05:34:58.272Z,7.20
2022-09-07T05:37:26.923Z,8.60
2022-09-07T05:39:57.337Z,12.30
2022-09-07T05:42:26.361Z,10.20
2022-09-07T05:44:55.049Z,10.10
2022-09-07T05:47:24.719Z,6.60
2022-09-07T05:49:57.045Z,6.20
2022-09-07T05:52:26.144Z,6.50
2022-09-07T05:55:07.524Z,6.30
2022-09-07T05:57:44.383Z,9.80
2022-09-07T06:00:14.689Z,7.50
2022-09-07T06:02:43.579Z,9.20
2022-09-07T06:05:12.465Z,5.90
2022-09-07T06:07:41.306Z,9.90
2022-09-07T06:12:58.956Z,6.80
2022-09-07T06:15:27.661Z,7.80
2022-09-07T06:17:56.336Z,9.40
2022-09-07T06:20:25.031Z,8.60
2022-09-07T06:22:53.682Z,6.30
2022-09-07T06:25:22.393Z,7.60
2022-09-07T06:27:52.016Z,10.10
2022-09-07T06:30:21.811Z,10.50
2022-09-07T06:32:50.586Z,5.50
2022-09-07T06:35:19.286Z,5.40
2022-09-07T06:37:47.922Z,7.30
2022-09-07T06:40:16.964Z,7.80
2022-09-07T06:42:45.658Z,6.50
2022-09-07T06:45:17.322Z,6.50
2022-09-07T06:47:46.062Z,9.40
2022-09-07T06:50:16.055Z,6.60
2022-09-07T06:55:33.388Z,5.20
2022-09-07T06:58:02.105Z,7.90
2022-09-07T07:00:30.871Z,7.60
2022-09-07T07:02:59.607Z,5.10
2022-09-07T07:05:28.843Z,5.50
2022-09-07T07:07:58.334Z,7.90
2022-09-07T07:10:27.097Z,8.40
2022-09-07T07:12:58.766Z,7.50
2022-09-07T07:15:30.815Z,7.30
2022-09-07T07:18:13.415Z,6.50
2022-09-07T07:20:48.627Z,6.50
2022-09-07T07:23:17.407Z,4.00
2022-09-07T07:25:46.208Z,9.30
2022-09-07T07:31:10.428Z,5.80
2022-09-07T07:33:41.830Z,9.60
2022-09-07T07:36:24.336Z,9.30
2022-09-07T07:38:58.858Z,6.90
2022-09-07T07:44:21.134Z,8.00
2022-09-07T07:46:51.637Z,8.60
2022-09-07T07:49:20.526Z,5.30
2022-09-07T07:54:38.051Z,10.40
2022-09-07T07:57:06.745Z,14.20
2022-09-07T07:59:36.191Z,7.30
2022-09-07T08:02:07.370Z,6.10
2022-09-07T08:04:37.135Z,7.20
2022-09-07T08:07:10.489Z,7.70
2022-09-07T08:09:43.365Z,8.50
2022-09-07T08:12:19.198Z,9.00
2022-09-07T08:14:49.033Z,5.20
2022-09-07T08:17:18.069Z,7.10
2022-09-07T08:19:46.847Z,6.60
2022-09-07T08:22:15.780Z,7.20
2022-09-07T08:24:44.626Z,6.00
2022-09-07T08:27:13.789Z,7.10
2022-09-07T08:29:43.341Z,6.10
2022-09-07T08:32:12.108Z,6.10
2022-09-07T08:34:40.923Z,5.90
2022-09-07T08:37:09.842Z,6.00
2022-09-07T08:39:39.343Z,7.90
2022-09-07T08:42:08.231Z,5.90
2022-09-07T08:44:51.440Z,5.80
2022-09-07T08:47:41.748Z,4.10
2022-09-07T08:50:52.576Z,4.80
2022-09-07T08:53:25.325Z,6.30
2022-09-07T08:58:53.581Z,5.90
2022-09-07T09:01:31.037Z,8.80
2022-09-07T09:04:18.181Z,7.10
2022-09-07T09:07:31.193Z,5.80
2022-09-07T09:10:35.000Z,6.50
2022-09-07T09:13:27.049Z,11.90
2022-09-07T09:16:43.473Z,7.30
2022-09-07T09:19:39.804Z,7.10
2022-09-07T09:22:25.929Z,7.90
2022-09-07T09:25:16.125Z,8.00
2022-09-07T09:27:44.937Z,5.40
2022-09-07T09:30:17.623Z,5.70
2022-09-07T09:35:36.837Z,6.40
2022-09-07T09:38:06.178Z,9.50
2022-09-07T09:40:38.290Z,6.10
2022-09-07T09:43:20.177Z,6.10
2022-09-07T09:54:20.394Z,4.30
2022-09-07T09:56:49.944Z,5.90
2022-09-07T10:05:30.845Z,5.90
2022-09-07T10:07:59.670Z,7.20
2022-09-07T10:10:29.845Z,8.10
2022-09-07T10:12:58.937Z,7.70
2022-09-07T10:15:40.387Z,5.70
2022-09-07T10:18:37.994Z,5.40
2022-09-07T10:21:30.673Z,4.90
2022-09-07T10:24:07.981Z,6.30
2022-09-07T10:26:39.531Z,7.20
2022-09-07T10:29:19.540Z,5.00
2022-09-07T10:32:16.299Z,8.10
2022-09-07T10:35:28.734Z,9.20
2022-09-07T10:38:28.904Z,7.60
2022-09-07T10:41:07.758Z,13.20
2022-09-07T10:43:37.275Z,6.50
2022-09-07T10:49:27.856Z,5.80
2022-09-07T10:52:33.330Z,7.00
2022-09-07T10:55:20.892Z,5.80
2022-09-07T10:59:01.504Z,7.00
2022-09-07T11:01:36.759Z,5.50
2022-09-07T11:04:44.947Z,5.80
2022-09-07T11:07:34.799Z,6.70
2022-09-07T11:10:43.395Z,6.70
2022-09-07T11:13:18.358Z,7.60
2022-09-07T11:15:58.950Z,7.20
2022-09-07T11:22:28.810Z,8.60
2022-09-07T11:28:21.544Z,6.50
2022-09-07T11:31:00.330Z,7.60
2022-09-07T11:34:23.793Z,8.30
2022-09-07T11:36:50.291Z,5.30
2022-09-07T11:39:41.149Z,7.30
2022-09-07T11:45:27.827Z,11.40
2022-09-07T11:48:21.807Z,9.10
2022-09-07T11:51:10.945Z,8.90
2022-09-07T11:53:48.725Z,11.40
2022-09-07T11:56:57.816Z,9.60
2022-09-07T11:59:43.019Z,10.40
2022-09-07T12:02:42.066Z,4.70
2022-09-07T12:05:25.407Z,14.60
2022-09-07T12:08:16.272Z,9.50
2022-09-07T12:11:08.023Z,7.10
2022-09-07T12:14:36.117Z,7.00
2022-09-07T12:17:46.128Z,6.80
2022-09-07T12:20:22.349Z,8.40
2022-09-07T12:23:21.272Z,5.50
2022-09-07T12:25:52.022Z,6.30
2022-09-07T12:28:23.611Z,8.20
2022-09-07T12:31:12.805Z,6.80
2022-09-07T12:33:41.618Z,6.80
2022-09-07T12:36:32.433Z,10.30
2022-09-07T12:39:29.159Z,6.70
2022-09-07T12:45:29.594Z,10.80
2022-09-07T12:48:10.717Z,5.50
2022-09-07T12:51:59.589Z,7.40
2022-09-07T12:54:38.205Z,4.90
2022-09-07T12:57:49.869Z,6.90
2022-09-07T13:00:33.328Z,7.60
2022-09-07T13:03:52.500Z,8.40
2022-09-07T13:07:02.526Z,7.10
2022-09-07T13:09:38.403Z,5.70
2022-09-07T13:15:52.257Z,6.40
2022-09-07T13:18:27.634Z,9.30
2022-09-07T13:21:09.538Z,7.10
2022-09-07T13:23:45.511Z,8.40
2022-09-07T13:27:08.765Z,8.70
2022-09-07T13:29:50.735Z,7.20
2022-09-07T13:35:25.775Z,9.60
2022-09-07T13:38:04.016Z,8.50
2022-09-07T13:40:42.252Z,8.90
2022-09-07T13:43:24.239Z,11.30
2022-09-07T13:45:56.152Z,6.20
2022-09-07T13:48:49.430Z,6.40
2022-09-07T13:51:49.716Z,10.20
2022-09-07T13:55:03.727Z,7.90
2022-09-07T13:58:01.918Z,7.10
2022-09-07T14:00:31.459Z,6.70
2022-09-07T14:03:07.695Z,7.50
2022-09-07T14:05:36.519Z,7.00
2022-09-07T14:08:05.418Z,7.10
2022-09-07T14:10:34.065Z,7.10
2022-09-07T14:13:11.703Z,9.80
2022-09-07T14:15:49.179Z,10.80
2022-09-07T14:18:31.831Z,9.70
2022-09-07T14:21:03.099Z,8.40
2022-09-07T14:23:35.845Z,4.90
2022-09-07T14:26:23.523Z,6.50
2022-09-07T14:28:57.091Z,8.90
2022-09-07T14:31:27.157Z,7.30
2022-09-07T14:33:59.564Z,9.50
2022-09-07T14:36:45.817Z,5.40
2022-09-07T14:39:18.873Z,8.20
2022-09-07T14:41:51.349Z,7.20
2022-09-07T14:44:43.324Z,7.90
2022-09-07T14:47:29.656Z,6.00
2022-09-07T14:50:06.472Z,10.90
2022-09-07T14:53:33.518Z,8.30
2022-09-07T14:55:44.793Z,5.80
2022-09-07T14:58:16.669Z,6.30
2022-09-07T15:01:37.094Z,7.60
2022-09-07T15:03:41.579Z,8.50
2022-09-07T15:07:01.016Z,8.20
2022-09-07T15:09:01.565Z,6.00
2022-09-07T15:11:36.736Z,8.70
2022-09-07T15:14:08.951Z,7.50
2022-09-07T15:16:45.106Z,6.60
2022-09-07T15:19:16.814Z,6.60
2022-09-07T15:21:46.350Z,7.60
2022-09-07T15:24:16.418Z,10.30
2022-09-07T15:27:05.226Z,7.70
2022-09-07T15:29:34.023Z,7.90
2022-09-07T15:32:05.173Z,9.30
2022-09-07T15:34:36.613Z,9.30
2022-09-07T15:38:01.095Z,8.90
2022-09-07T15:39:54.217Z,8.50
2022-09-07T15:45:12.451Z,7.10
2022-09-07T15:47:47.040Z,10.60
2022-09-07T15:50:19.615Z,9.60
2022-09-07T15:52:48.389Z,7.40
2022-09-07T15:55:19.731Z,10.70
2022-09-07T15:57:51.257Z,8.30
2022-09-07T16:00:21.766Z,12.40
2022-09-07T16:03:07.389Z,9.70
2022-09-07T16:05:44.400Z,8.10
2022-09-07T16:11:23.982Z,12.20
2022-09-07T16:14:01.831Z,8.80
2022-09-07T16:19:21.585Z,10.30
2022-09-07T16:21:50.234Z,9.60
2022-09-07T16:24:19.262Z,14.00
2022-09-07T16:26:47.901Z,7.80
2022-09-07T16:29:17.654Z,9.60
2022-09-07T16:34:35.542Z,16.30
2022-09-07T16:37:04.447Z,11.80
2022-09-07T16:39:34.147Z,9.90
2022-09-07T16:42:03.463Z,10.90
2022-09-07T16:44:34.638Z,14.10
2022-09-07T16:47:04.591Z,11.70
2022-09-07T16:49:33.255Z,19.00
2022-09-07T16:52:24.089Z,13.10
2022-09-07T16:54:59.659Z,12.20
2022-09-07T16:58:35.397Z,22.20
2022-09-07T17:00:17.875Z,25.20
2022-09-07T17:02:46.555Z,25.70
2022-09-07T17:05:15.734Z,21.80
2022-09-07T17:07:44.385Z,19.10
2022-09-07T17:10:13.228Z,21.90
2022-09-07T17:12:41.856Z,27.90
2022-09-07T17:15:11.127Z,15.60
2022-09-07T17:17:40.438Z,15.00
2022-09-07T17:20:09.937Z,10.90
2022-09-07T17:22:38.559Z,13.80
2022-09-07T17:25:08.915Z,12.20
2022-09-07T17:27:37.927Z,11.90
2022-09-07T17:30:07.866Z,10.00
2022-09-07T17:32:36.472Z,12.10
2022-09-07T17:35:14.441Z,10.70
2022-09-07T17:37:48.132Z,7.80
2022-09-07T17:40:17.166Z,7.80
2022-09-07T17:45:34.745Z,10.50
2022-09-07T17:48:03.554Z,11.20
2022-09-07T17:50:32.220Z,10.40
2022-09-07T17:53:00.855Z,9.20
2022-09-07T17:55:31.768Z,8.10
2022-09-07T17:58:04.782Z,17.10
2022-09-07T18:00:34.783Z,6.70
2022-09-07T18:03:03.792Z,10.00
2022-09-07T18:05:33.925Z,8.70
2022-09-07T18:08:02.912Z,11.40
2022-09-07T18:13:36.307Z,12.00
2022-09-07T18:16:43.720Z,13.50
2022-09-07T18:19:20.965Z,11.50
2022-09-07T18:21:51.926Z,10.20
2022-09-07T18:24:30.744Z,14.40
2022-09-07T18:26:59.427Z,11.30
2022-09-07T18:29:32.938Z,11.10
2022-09-07T18:32:08.702Z,9.40
2022-09-07T18:34:41.420Z,14.70
2022-09-07T18:37:22.535Z,8.40
2022-09-07T18:40:04.321Z,17.70
2022-09-07T18:42:35.114Z,21.70
2022-09-07T18:47:52.916Z,11.80
2022-09-07T18:50:23.578Z,12.80
2022-09-07T18:52:52.815Z,11.00
2022-09-07T18:55:22.044Z,11.10
2022-09-07T18:57:50.605Z,9.60
2022-09-07T19:00:22.361Z,13.00
2022-09-07T19:02:51.519Z,9.10
2022-09-07T19:08:08.904Z,10.60
2022-09-07T19:10:38.505Z,12.00
2022-09-07T19:13:07.234Z,10.30
2022-09-07T19:15:37.646Z,12.60
2022-09-07T19:18:08.505Z,16.50
2022-09-07T19:20:37.542Z,16.20
2022-09-07T19:23:06.823Z,12.70
2022-09-07T19:25:41.257Z,12.30
2022-09-07T19:28:09.819Z,13.10
2022-09-07T19:30:38.407Z,16.50
2022-09-07T19:33:10.260Z,9.80
2022-09-07T19:35:38.895Z,11.80
2022-09-07T19:38:07.565Z,14.70
2022-09-07T19:40:36.193Z,14.90
2022-09-07T19:43:05.337Z,10.50
2022-09-07T19:45:39.840Z,12.80
2022-09-07T19:48:08.441Z,14.00
2022-09-07T19:50:37.123Z,13.20
2022-09-07T19:53:06.304Z,18.60
2022-09-07T19:55:34.915Z,12.40
2022-09-07T19:58:03.517Z,10.90
2022-09-07T20:00:32.219Z,14.20
2022-09-07T20:03:01.043Z,13.40
2022-09-07T20:05:31.385Z,13.90
2022-09-07T20:08:00.061Z,12.30
2022-09-07T20:10:30.429Z,14.80
2022-09-07T20:12:59.199Z,11.90
2022-09-07T20:15:28.071Z,10.90
2022-09-07T20:17:56.767Z,12.60
2022-09-07T20:20:25.717Z,17.20
2022-09-07T20:22:54.572Z,17.20
2022-09-07T20:25:23.536Z,13.20
2022-09-07T20:27:52.340Z,12.50
2022-09-07T20:30:24.615Z,15.00
2022-09-07T20:32:53.610Z,12.60
2022-09-07T20:35:22.393Z,14.40
2022-09-07T20:37:51.107Z,11.80
2022-09-07T20:40:20.387Z,13.20
2022-09-07T20:42:49.096Z,12.20
2022-09-07T20:45:18.305Z,13.50
2022-09-07T20:47:47.027Z,10.70
2022-09-07T20:50:15.718Z,10.10
2022-09-07T20:52:44.329Z,11.50
2022-09-07T20:55:12.938Z,14.50
2022-09-07T20:57:41.627Z,10.30
2022-09-07T21:00:10.707Z,13.40
2022-09-07T21:02:39.471Z,12.50
2022-09-07T21:05:08.585Z,14.10
2022-09-07T21:07:41.210Z,12.50
2022-09-07T21:10:10.321Z,12.10
2022-09-07T21:12:39.159Z,13.20
2022-09-07T21:15:09.327Z,12.00
2022-09-07T21:17:39.054Z,12.20
2022-09-07T21:20:07.971Z,11.90
2022-09-07T21:22:36.550Z,14.50
2022-09-07T21:25:05.755Z,12.70
2022-09-07T21:27:38.803Z,10.70
2022-09-07T21:30:09.221Z,11.50
2022-09-07T21:32:38.044Z,11.00
2022-09-07T21:35:08.174Z,13.70
2022-09-07T21:37:39.522Z,12.40
2022-09-07T21:40:09.265Z,10.50
2022-09-07T21:42:38.902Z,10.50
2022-09-07T21:45:09.456Z,8.90
2022-09-07T21:47:40.872Z,10.80
2022-09-07T21:50:09.619Z,11.00
2022-09-07T21:52:39.126Z,9.90
2022-09-07T21:55:08.718Z,10.10
2022-09-07T21:57:37.337Z,10.90
2022-09-07T22:00:09.226Z,9.70
2022-09-07T22:02:37.911Z,11.30
2022-09-07T22:05:06.791Z,13.00
2022-09-07T22:07:35.413Z,11.00
2022-09-07T22:10:04.250Z,11.50
2022-09-07T22:12:32.831Z,13.00
2022-09-07T22:15:01.504Z,11.80
2022-09-07T22:17:30.198Z,10.20
2022-09-07T22:19:58.825Z,10.50
2022-09-07T22:22:27.793Z,9.00
2022-09-07T22:24:56.422Z,11.10
2022-09-07T22:27:25.103Z,13.00
2022-09-07T22:29:53.679Z,9.30
2022-09-07T22:32:23.011Z,10.70
2022-09-07T22:34:51.975Z,11.00
2022-09-07T22:37:20.610Z,9.40
2022-09-07T22:39:49.240Z,9.10
2022-09-07T22:42:17.962Z,9.50
2022-09-07T22:44:46.637Z,9.70
2022-09-07T22:47:15.902Z,10.60
2022-09-07T22:49:44.489Z,10.90
2022-09-07T22:52:13.180Z,11.30
2022-09-07T22:54:41.807Z,11.10
2022-09-07T22:57:10.558Z,14.20
2022-09-07T22:59:39.318Z,9.90
2022-09-07T23:02:08.010Z,10.50
2022-09-07T23:04:36.743Z,9.90
2022-09-07T23:07:07.882Z,10.80
2022-09-07T23:09:36.526Z,9.70
2022-09-07T23:12:05.291Z,11.50
2022-09-07T23:14:34.049Z,10.80
2022-09-07T23:17:02.740Z,9.50
2022-09-07T23:19:31.402Z,10.10
2022-09-07T23:22:01.021Z,9.40
2022-09-07T23:24:29.679Z,13.20
2022-09-07T23:26:58.308Z,9.20
2022-09-07T23:29:27.048Z,11.20
2022-09-07T23:31:55.833Z,10.10
2022-09-07T23:34:24.482Z,10.80
2022-09-07T23:36:53.131Z,9.60
2022-09-07T23:39:21.921Z,13.20
2022-09-07T23:41:50.800Z,12.00
2022-09-07T23:44:19.402Z,11.30
2022-09-07T23:46:48.136Z,7.90
2022-09-07T23:49:16.945Z,9.40
2022-09-07T23:51:45.625Z,10.90
2022-09-07T23:54:14.197Z,11.00
2022-09-07T23:56:42.883Z,10.30
2022-09-07T23:59:12.045Z,9.50
